createdAt,value
2023-01-11T00:00:36.815Z,1.50
2023-01-11T00:01:36.813Z,1.40
2023-01-11T00:02:36.887Z,1.40
2023-01-11T00:03:36.809Z,1.50
2023-01-11T00:04:36.819Z,1.60
2023-01-11T00:05:36.780Z,1.20
2023-01-11T00:06:36.778Z,1.70
2023-01-11T00:07:36.743Z,1.50
2023-01-11T00:08:36.733Z,1.50
2023-01-11T00:09:36.732Z,1.80
2023-01-11T00:10:36.721Z,1.60
2023-01-11T00:11:36.705Z,1.70
2023-01-11T00:12:36.720Z,1.80
2023-01-11T00:13:36.675Z,1.70
2023-01-11T00:14:36.663Z,1.60
2023-01-11T00:15:36.684Z,1.70
2023-01-11T00:16:36.653Z,1.40
2023-01-11T00:17:36.637Z,1.70
2023-01-11T00:18:36.632Z,1.70
2023-01-11T00:19:36.634Z,1.40
2023-01-11T00:20:36.623Z,1.80
2023-01-11T00:21:36.607Z,1.50
2023-01-11T00:22:36.598Z,1.60
2023-01-11T00:23:36.598Z,1.70
2023-01-11T00:24:36.560Z,1.60
2023-01-11T00:25:36.576Z,2.00
2023-01-11T00:26:36.547Z,1.60
2023-01-11T00:27:36.533Z,1.50
2023-01-11T00:28:36.824Z,2.00
2023-01-11T00:29:36.527Z,1.60
2023-01-11T00:30:36.520Z,1.50
2023-01-11T00:31:36.567Z,1.50
2023-01-11T00:32:36.507Z,1.60
2023-01-11T00:33:36.477Z,1.50
2023-01-11T00:34:36.455Z,1.50
2023-01-11T00:35:36.457Z,1.30
2023-01-11T00:36:36.485Z,1.40
2023-01-11T00:37:36.446Z,1.70
2023-01-11T00:38:36.440Z,1.90
2023-01-11T00:39:36.410Z,1.50
2023-01-11T00:40:36.421Z,1.70
2023-01-11T00:41:36.395Z,1.60
2023-01-11T00:42:36.419Z,1.10
2023-01-11T00:43:36.374Z,1.60
2023-01-11T00:44:36.362Z,1.30
2023-01-11T00:45:36.368Z,1.40
2023-01-11T00:46:36.365Z,1.50
2023-01-11T00:47:36.355Z,1.20
2023-01-11T00:48:36.313Z,1.50
2023-01-11T00:49:36.333Z,1.50
2023-01-11T00:50:36.294Z,1.30
2023-01-11T00:51:36.305Z,1.60
2023-01-11T00:52:36.307Z,1.40
2023-01-11T00:53:36.280Z,1.40
2023-01-11T00:54:36.254Z,1.50
2023-01-11T00:55:36.256Z,1.30
2023-01-11T00:56:36.244Z,1.40
2023-01-11T00:57:36.239Z,1.40
2023-01-11T00:58:36.233Z,1.30
2023-01-11T00:59:36.215Z,1.90
2023-01-11T01:00:36.189Z,1.50
2023-01-11T01:01:36.246Z,1.30
2023-01-11T01:02:36.203Z,1.40
2023-01-11T01:03:36.162Z,1.70
2023-01-11T01:04:36.150Z,1.50
2023-01-11T01:05:36.161Z,1.60
2023-01-11T01:06:36.173Z,1.50
2023-01-11T01:07:36.139Z,1.60
2023-01-11T01:08:36.128Z,1.50
2023-01-11T01:09:36.115Z,1.40
2023-01-11T01:10:36.097Z,1.70
2023-01-11T01:11:36.088Z,1.40
2023-01-11T01:12:36.075Z,1.70
2023-01-11T01:13:36.058Z,1.50
2023-01-11T01:14:36.052Z,1.40
2023-01-11T01:15:36.049Z,1.60
2023-01-11T01:16:36.039Z,1.50
2023-01-11T01:17:36.040Z,1.40
2023-01-11T01:18:36.019Z,1.80
2023-01-11T01:19:36.001Z,1.50
2023-01-11T01:20:35.991Z,1.60
2023-01-11T01:21:35.980Z,1.50
2023-01-11T01:22:35.999Z,1.30
2023-01-11T01:23:35.958Z,1.60
2023-01-11T01:24:35.963Z,1.60
2023-01-11T01:25:35.949Z,1.30
2023-01-11T01:26:35.930Z,1.80
2023-01-11T01:27:35.940Z,1.50
2023-01-11T01:28:35.915Z,1.60
2023-01-11T01:29:35.910Z,1.80
2023-01-11T01:30:35.898Z,1.40
2023-01-11T01:31:35.944Z,1.70
2023-01-11T01:32:35.895Z,1.60
2023-01-11T01:33:35.880Z,1.40
2023-01-11T01:34:35.839Z,1.60
2023-01-11T01:35:35.839Z,1.60
2023-01-11T01:36:35.831Z,1.40
2023-01-11T01:37:35.893Z,1.50
2023-01-11T01:38:35.795Z,1.50
2023-01-11T01:39:35.804Z,1.80
2023-01-11T01:40:35.778Z,1.80
2023-01-11T01:41:35.774Z,1.60
2023-01-11T01:42:35.791Z,1.80
2023-01-11T01:43:35.756Z,1.60
2023-01-11T01:44:35.739Z,1.60
2023-01-11T01:45:35.740Z,1.90
2023-01-11T01:46:35.755Z,1.50
2023-01-11T01:47:35.737Z,1.80
2023-01-11T01:48:35.694Z,1.90
2023-01-11T01:49:35.702Z,1.60
2023-01-11T01:50:35.679Z,1.70
2023-01-11T01:51:35.685Z,1.90
2023-01-11T01:52:35.681Z,1.60
2023-01-11T01:53:35.650Z,1.80
2023-01-11T01:54:35.635Z,1.60
2023-01-11T01:55:35.659Z,1.70
2023-01-11T01:56:35.624Z,1.80
2023-01-11T01:57:35.627Z,1.60
2023-01-11T01:58:35.613Z,1.90
2023-01-11T01:59:35.610Z,1.80
2023-01-11T02:00:35.584Z,1.70
2023-01-11T02:01:35.654Z,1.70
2023-01-11T02:02:35.596Z,1.50
2023-01-11T02:03:35.558Z,1.70
2023-01-11T02:04:35.537Z,1.60
2023-01-11T02:05:35.529Z,1.70
2023-01-11T02:06:35.567Z,2.00
2023-01-11T02:07:35.520Z,1.50
2023-01-11T02:08:35.502Z,1.60
2023-01-11T02:09:35.486Z,1.50
2023-01-11T02:10:35.482Z,1.50
2023-01-11T02:11:35.470Z,1.80
2023-01-11T02:12:35.466Z,1.80
2023-01-11T02:13:35.466Z,1.50
2023-01-11T02:14:35.441Z,1.80
2023-01-11T02:15:35.430Z,1.70
2023-01-11T02:16:35.430Z,1.60
2023-01-11T02:17:35.432Z,1.70
2023-01-11T02:18:35.394Z,1.50
2023-01-11T02:19:35.376Z,1.70
2023-01-11T02:20:35.382Z,1.60
2023-01-11T02:21:35.362Z,1.40
2023-01-11T02:22:35.382Z,1.50
2023-01-11T02:23:35.360Z,1.60
2023-01-11T02:24:35.329Z,1.70
2023-01-11T02:25:35.333Z,1.60
2023-01-11T02:26:35.312Z,1.30
2023-01-11T02:27:35.330Z,1.70
2023-01-11T02:28:35.296Z,1.60
2023-01-11T02:29:35.288Z,1.40
2023-01-11T02:30:35.270Z,1.80
2023-01-11T02:31:35.405Z,1.90
2023-01-11T02:32:35.275Z,1.70
2023-01-11T02:33:35.261Z,1.60
2023-01-11T02:34:35.242Z,1.50
2023-01-11T02:35:35.227Z,1.90
2023-01-11T02:36:35.219Z,1.40
2023-01-11T02:37:35.235Z,1.40
2023-01-11T02:38:35.186Z,1.70
2023-01-11T02:39:35.198Z,1.50
2023-01-11T02:40:35.181Z,1.70
2023-01-11T02:41:35.169Z,1.80
2023-01-11T02:42:35.176Z,1.70
2023-01-11T02:43:35.152Z,1.60
2023-01-11T02:44:35.123Z,1.60
2023-01-11T02:45:35.133Z,1.80
2023-01-11T02:46:35.145Z,1.70
2023-01-11T02:47:35.114Z,1.30
2023-01-11T02:48:35.097Z,1.60
2023-01-11T02:49:35.080Z,1.40
2023-01-11T02:50:35.066Z,1.60
2023-01-11T02:51:35.057Z,1.70
2023-01-11T02:52:35.051Z,1.50
2023-01-11T02:53:35.049Z,1.80
2023-01-11T02:54:35.022Z,1.70
2023-01-11T02:55:35.014Z,1.50
2023-01-11T02:56:35.027Z,1.70
2023-01-11T02:57:34.998Z,1.40
2023-01-11T02:58:34.985Z,1.60
2023-01-11T02:59:34.982Z,1.60
2023-01-11T03:00:34.962Z,1.60
2023-01-11T03:01:34.984Z,1.70
2023-01-11T03:02:34.974Z,1.60
2023-01-11T03:03:34.938Z,1.70
2023-01-11T03:04:34.926Z,2.20
2023-01-11T03:05:34.923Z,1.60
2023-01-11T03:06:34.967Z,2.10
2023-01-11T03:07:34.902Z,2.00
2023-01-11T03:08:34.877Z,1.30
2023-01-11T03:09:34.873Z,1.70
2023-01-11T03:10:34.865Z,1.60
2023-01-11T03:11:34.854Z,2.00
2023-01-11T03:12:34.840Z,1.70
2023-01-11T03:13:34.854Z,1.60
2023-01-11T03:14:34.823Z,1.90
2023-01-11T03:15:34.819Z,1.80
2023-01-11T03:16:34.815Z,1.70
2023-01-11T03:17:34.786Z,1.70
2023-01-11T03:18:34.801Z,1.50
2023-01-11T03:19:34.783Z,1.90
2023-01-11T03:20:34.763Z,1.60
2023-01-11T03:21:34.759Z,1.50
2023-01-11T03:22:34.750Z,1.80
2023-01-11T03:23:34.937Z,1.60
2023-01-11T03:24:34.723Z,2.00
2023-01-11T03:25:34.716Z,2.10
2023-01-11T03:26:34.711Z,1.60
2023-01-11T03:27:34.719Z,1.80
2023-01-11T03:28:34.703Z,1.70
2023-01-11T03:29:34.673Z,1.90
2023-01-11T03:30:34.659Z,2.00
2023-01-11T03:31:34.681Z,1.90
2023-01-11T03:32:34.641Z,1.90
2023-01-11T03:33:34.652Z,2.10
2023-01-11T03:34:34.631Z,1.70
2023-01-11T03:35:34.610Z,1.80
2023-01-11T03:36:34.620Z,1.60
2023-01-11T03:37:34.603Z,2.10
2023-01-11T03:38:34.580Z,2.00
2023-01-11T03:39:34.578Z,1.90
2023-01-11T03:40:34.556Z,1.90
2023-01-11T03:41:34.611Z,1.80
2023-01-11T03:42:34.529Z,1.70
2023-01-11T03:43:34.539Z,1.90
2023-01-11T03:44:34.522Z,1.80
2023-01-11T03:45:34.527Z,1.90
2023-01-11T03:46:34.576Z,1.90
2023-01-11T03:47:34.482Z,1.80
2023-01-11T03:48:34.503Z,2.10
2023-01-11T03:49:34.465Z,1.90
2023-01-11T03:50:34.456Z,1.60
2023-01-11T03:51:34.449Z,1.80
2023-01-11T03:52:34.458Z,2.20
2023-01-11T03:53:34.473Z,2.10
2023-01-11T03:54:34.422Z,1.90
2023-01-11T03:55:34.424Z,1.80
2023-01-11T03:56:34.401Z,1.50
2023-01-11T03:57:34.393Z,2.00
2023-01-11T03:58:34.396Z,2.00
2023-01-11T03:59:34.378Z,2.10
2023-01-11T04:00:34.366Z,1.80
2023-01-11T04:01:34.371Z,2.10
2023-01-11T04:02:34.324Z,1.90
2023-01-11T04:03:34.341Z,1.50
2023-01-11T04:04:34.345Z,2.00
2023-01-11T04:05:34.331Z,1.80
2023-01-11T04:06:34.365Z,1.80
2023-01-11T04:07:34.304Z,1.70
2023-01-11T04:08:34.275Z,1.70
2023-01-11T04:09:34.276Z,1.80
2023-01-11T04:10:34.250Z,1.70
2023-01-11T04:11:34.249Z,1.70
2023-01-11T04:12:34.254Z,1.60
2023-01-11T04:13:34.232Z,1.80
2023-01-11T04:14:34.211Z,1.80
2023-01-11T04:15:34.210Z,1.70
2023-01-11T04:16:34.210Z,1.90
2023-01-11T04:17:34.184Z,1.60
2023-01-11T04:18:34.181Z,1.60
2023-01-11T04:19:34.170Z,1.80
2023-01-11T04:20:34.154Z,1.70
2023-01-11T04:21:34.164Z,1.80
2023-01-11T04:22:34.125Z,1.50
2023-01-11T04:23:34.163Z,1.50
2023-01-11T04:24:34.105Z,2.00
2023-01-11T04:25:34.119Z,1.60
2023-01-11T04:26:34.087Z,2.00
2023-01-11T04:27:34.097Z,1.50
2023-01-11T04:28:34.096Z,1.50
2023-01-11T04:29:34.066Z,1.70
2023-01-11T04:30:34.060Z,1.50
2023-01-11T04:31:34.120Z,1.70
2023-01-11T04:32:34.041Z,1.80
2023-01-11T04:33:34.044Z,1.30
2023-01-11T04:34:34.006Z,1.70
2023-01-11T04:35:34.008Z,1.70
2023-01-11T04:36:33.982Z,1.60
2023-01-11T04:37:33.979Z,1.70
2023-01-11T04:38:34.004Z,1.50
2023-01-11T04:39:33.954Z,1.80
2023-01-11T04:40:33.942Z,1.80
2023-01-11T04:41:33.944Z,1.60
2023-01-11T04:42:33.916Z,1.90
2023-01-11T04:43:33.944Z,1.70
2023-01-11T04:44:33.897Z,1.50
2023-01-11T04:45:33.982Z,1.50
2023-01-11T04:46:33.883Z,1.50
2023-01-11T04:47:33.872Z,1.70
2023-01-11T04:48:33.877Z,1.60
2023-01-11T04:49:33.864Z,1.70
2023-01-11T04:50:33.959Z,1.60
2023-01-11T04:51:33.824Z,1.50
2023-01-11T04:52:33.819Z,1.90
2023-01-11T04:53:33.833Z,1.50
2023-01-11T04:54:33.809Z,1.80
2023-01-11T04:55:33.783Z,1.80
2023-01-11T04:56:33.782Z,1.50
2023-01-11T04:57:33.768Z,1.60
2023-01-11T04:58:33.872Z,1.60
2023-01-11T04:59:33.767Z,1.70
2023-01-11T05:00:33.749Z,1.60
2023-01-11T05:01:33.729Z,1.40
2023-01-11T05:02:33.717Z,1.90
2023-01-11T05:03:33.725Z,1.60
2023-01-11T05:04:33.753Z,1.80
2023-01-11T05:05:33.681Z,1.70
2023-01-11T05:06:33.733Z,1.50
2023-01-11T05:07:33.657Z,1.60
2023-01-11T05:08:33.689Z,1.80
2023-01-11T05:09:33.643Z,1.90
2023-01-11T05:10:33.632Z,1.70
2023-01-11T05:11:33.646Z,1.40
2023-01-11T05:12:33.636Z,1.70
2023-01-11T05:13:33.607Z,1.60
2023-01-11T05:14:33.610Z,1.60
2023-01-11T05:15:33.577Z,1.50
2023-01-11T05:16:33.608Z,1.60
2023-01-11T05:17:33.560Z,1.90
2023-01-11T05:18:33.564Z,1.50
2023-01-11T05:19:33.536Z,1.80
2023-01-11T05:20:33.525Z,1.60
2023-01-11T05:21:33.529Z,1.50
2023-01-11T05:22:33.503Z,1.70
2023-01-11T05:23:33.533Z,1.50
2023-01-11T05:24:33.481Z,1.80
2023-01-11T05:25:33.473Z,1.80
2023-01-11T05:26:34.802Z,1.50
2023-01-11T05:27:33.450Z,1.90
2023-01-11T05:28:33.494Z,1.60
2023-01-11T05:29:33.436Z,1.80
2023-01-11T05:30:33.434Z,1.50
2023-01-11T05:31:33.444Z,1.50
2023-01-11T05:32:33.395Z,1.80
2023-01-11T05:33:33.422Z,1.40
2023-01-11T05:34:33.382Z,1.70
2023-01-11T05:35:33.375Z,1.40
2023-01-11T05:36:33.365Z,1.50
2023-01-11T05:37:33.349Z,1.80
2023-01-11T05:38:33.368Z,1.60
2023-01-11T05:39:33.330Z,1.90
2023-01-11T05:40:33.326Z,1.60
2023-01-11T05:41:33.306Z,1.50
2023-01-11T05:42:33.309Z,1.90
2023-01-11T05:43:33.420Z,1.60
2023-01-11T05:44:33.302Z,2.00
2023-01-11T05:45:33.304Z,1.90
2023-01-11T05:46:33.262Z,1.50
2023-01-11T05:47:33.279Z,1.90
2023-01-11T05:48:33.232Z,2.00
2023-01-11T05:49:33.228Z,2.30
2023-01-11T05:50:33.220Z,1.80
2023-01-11T05:51:33.219Z,1.90
2023-01-11T05:52:33.224Z,2.00
2023-01-11T05:53:33.195Z,1.90
2023-01-11T05:54:33.196Z,2.00
2023-01-11T05:55:33.172Z,2.00
2023-01-11T05:56:33.151Z,1.70
2023-01-11T05:57:33.159Z,1.90
2023-01-11T05:58:33.132Z,1.90
2023-01-11T05:59:33.134Z,2.10
2023-01-11T06:00:33.125Z,1.90
2023-01-11T06:01:33.109Z,2.00
2023-01-11T06:02:33.187Z,2.30
2023-01-11T06:03:33.091Z,1.90
2023-01-11T06:04:33.085Z,2.10
2023-01-11T06:05:33.055Z,1.90
2023-01-11T06:06:33.289Z,1.80
2023-01-11T06:07:33.046Z,1.90
2023-01-11T06:08:33.051Z,1.70
2023-01-11T06:09:33.028Z,1.90
2023-01-11T06:10:32.972Z,2.00
2023-01-11T06:11:33.007Z,1.80
2023-01-11T06:12:33.000Z,2.00
2023-01-11T06:13:32.975Z,1.80
2023-01-11T06:14:32.980Z,1.90
2023-01-11T06:15:32.957Z,1.90
2023-01-11T06:16:33.022Z,1.80
2023-01-11T06:17:33.008Z,1.90
2023-01-11T06:18:32.941Z,1.70
2023-01-11T06:19:32.946Z,2.30
2023-01-11T06:20:32.912Z,1.80
2023-01-11T06:21:32.905Z,1.90
2023-01-11T06:22:32.899Z,2.10
2023-01-11T06:23:32.898Z,1.90
2023-01-11T06:24:32.894Z,2.20
2023-01-11T06:25:32.859Z,2.20
2023-01-11T06:26:32.845Z,2.20
2023-01-11T06:27:32.845Z,2.20
2023-01-11T06:28:32.834Z,1.70
2023-01-11T06:29:32.873Z,2.00
2023-01-11T06:30:32.841Z,1.90
2023-01-11T06:31:32.786Z,2.30
2023-01-11T06:32:32.808Z,2.10
2023-01-11T06:33:32.798Z,1.70
2023-01-11T06:34:32.788Z,1.70
2023-01-11T06:35:32.764Z,1.70
2023-01-11T06:36:32.753Z,1.90
2023-01-11T06:37:32.724Z,1.70
2023-01-11T06:38:32.744Z,2.20
2023-01-11T06:39:32.722Z,2.00
2023-01-11T06:40:32.717Z,2.30
2023-01-11T06:41:32.708Z,2.20
2023-01-11T06:42:32.683Z,2.10
2023-01-11T06:43:32.691Z,2.10
2023-01-11T06:44:32.683Z,2.20
2023-01-11T06:45:32.654Z,2.30
2023-01-11T06:46:32.689Z,2.10
2023-01-11T06:47:32.649Z,2.20
2023-01-11T06:48:32.646Z,2.40
2023-01-11T06:49:32.659Z,2.00
2023-01-11T06:50:32.621Z,2.40
2023-01-11T06:51:32.590Z,2.10
2023-01-11T06:52:32.591Z,2.10
2023-01-11T06:53:32.571Z,2.30
2023-01-11T06:54:32.587Z,2.00
2023-01-11T06:55:32.540Z,2.30
2023-01-11T06:56:32.551Z,2.20
2023-01-11T06:57:32.525Z,2.60
2023-01-11T06:58:32.536Z,2.30
2023-01-11T06:59:32.519Z,2.10
2023-01-11T07:00:32.464Z,2.50
2023-01-11T07:01:32.594Z,2.10
2023-01-11T07:02:32.679Z,2.30
2023-01-11T07:03:32.466Z,2.00
2023-01-11T07:04:32.474Z,2.00
2023-01-11T07:05:32.445Z,2.20
2023-01-11T07:06:32.388Z,2.10
2023-01-11T07:07:32.377Z,2.40
2023-01-11T07:08:32.364Z,2.30
2023-01-11T07:09:32.408Z,2.20
2023-01-11T07:10:32.416Z,1.90
2023-01-11T07:11:32.394Z,2.20
2023-01-11T07:12:32.378Z,2.10
2023-01-11T07:13:32.320Z,1.90
2023-01-11T07:14:32.318Z,2.10
2023-01-11T07:15:32.288Z,1.80
2023-01-11T07:16:32.290Z,2.20
2023-01-11T07:17:32.277Z,1.80
2023-01-11T07:18:32.261Z,2.00
2023-01-11T07:19:32.279Z,2.10
2023-01-11T07:20:32.242Z,1.70
2023-01-11T07:21:32.226Z,2.20
2023-01-11T07:22:32.214Z,1.70
2023-01-11T07:23:32.217Z,2.10
2023-01-11T07:24:32.210Z,2.00
2023-01-11T07:25:32.195Z,2.00
2023-01-11T07:26:32.183Z,1.90
2023-01-11T07:27:32.164Z,1.80
2023-01-11T07:28:32.152Z,2.20
2023-01-11T07:29:32.156Z,2.00
2023-01-11T07:30:32.133Z,1.90
2023-01-11T07:31:32.220Z,2.00
2023-01-11T07:32:32.131Z,1.90
2023-01-11T07:33:32.140Z,2.00
2023-01-11T07:34:32.125Z,1.90
2023-01-11T07:35:32.079Z,1.90
2023-01-11T07:36:32.083Z,2.00
2023-01-11T07:37:32.071Z,1.90
2023-01-11T07:38:32.059Z,2.50
2023-01-11T07:39:42.890Z,2.00
2023-01-11T07:40:32.054Z,2.00
2023-01-11T07:41:32.028Z,2.20
2023-01-11T07:42:32.016Z,1.80
2023-01-11T07:43:31.988Z,2.30
2023-01-11T07:44:31.990Z,2.10
2023-01-11T07:45:44.585Z,2.40
2023-01-11T07:46:32.066Z,2.20
2023-01-11T07:47:31.972Z,2.20
2023-01-11T07:48:31.940Z,2.60
2023-01-11T07:49:31.935Z,2.10
2023-01-11T07:50:31.933Z,2.10
2023-01-11T07:51:32.004Z,2.10
2023-01-11T07:52:31.927Z,2.30
2023-01-11T07:53:31.904Z,2.10
2023-01-11T07:54:31.928Z,2.00
2023-01-11T07:55:31.877Z,2.00
2023-01-11T07:56:31.970Z,2.30
2023-01-11T07:57:31.857Z,2.50
2023-01-11T07:58:31.912Z,2.70
2023-01-11T07:59:31.849Z,2.00
2023-01-11T08:00:31.830Z,2.50
2023-01-11T08:01:31.807Z,2.10
2023-01-11T08:02:31.891Z,2.50
2023-01-11T08:03:32.023Z,2.50
2023-01-11T08:04:31.799Z,2.10
2023-01-11T08:05:31.806Z,2.70
2023-01-11T08:06:31.775Z,1.90
2023-01-11T08:07:31.759Z,2.50
2023-01-11T08:08:31.741Z,2.40
2023-01-11T08:09:31.743Z,2.10
2023-01-11T08:10:31.768Z,2.00
2023-01-11T08:11:31.755Z,2.10
2023-01-11T08:12:31.701Z,2.20
2023-01-11T08:13:31.711Z,2.10
2023-01-11T08:14:31.706Z,2.50
2023-01-11T08:15:31.691Z,1.80
2023-01-11T08:16:31.705Z,1.80
2023-01-11T08:17:31.648Z,2.30
2023-01-11T08:18:31.701Z,1.90
2023-01-11T08:19:31.651Z,2.20
2023-01-11T08:20:31.625Z,2.10
2023-01-11T08:21:31.609Z,2.00
2023-01-11T08:22:31.606Z,2.40
2023-01-11T08:23:31.586Z,2.10
2023-01-11T08:24:31.618Z,2.40
2023-01-11T08:25:31.554Z,2.30
2023-01-11T08:26:31.585Z,2.00
2023-01-11T08:27:31.560Z,2.40
2023-01-11T08:28:31.543Z,2.10
2023-01-11T08:29:31.560Z,2.30
2023-01-11T08:30:31.534Z,2.10
2023-01-11T08:31:31.505Z,2.30
2023-01-11T08:32:31.535Z,2.00
2023-01-11T08:33:31.508Z,2.50
2023-01-11T08:34:33.056Z,2.20
2023-01-11T08:35:31.470Z,2.80
2023-01-11T08:36:31.478Z,2.50
2023-01-11T08:37:31.456Z,2.40
2023-01-11T08:38:31.435Z,2.20
2023-01-11T08:39:31.444Z,2.10
2023-01-11T08:40:31.433Z,2.30
2023-01-11T08:41:31.439Z,2.20
2023-01-11T08:42:31.450Z,2.10
2023-01-11T08:43:31.396Z,2.30
2023-01-11T08:44:35.009Z,2.00
2023-01-11T08:45:31.382Z,2.40
2023-01-11T08:46:31.418Z,1.90
2023-01-11T08:47:31.387Z,2.40
2023-01-11T08:48:31.342Z,2.40
2023-01-11T08:49:31.334Z,2.00
2023-01-11T08:50:31.361Z,2.40
2023-01-11T08:51:31.288Z,2.00
2023-01-11T08:52:31.308Z,2.50
2023-01-11T08:53:31.288Z,2.10
2023-01-11T08:54:31.318Z,2.40
2023-01-11T08:55:31.255Z,2.00
2023-01-11T08:56:31.241Z,2.10
2023-01-11T08:57:31.246Z,2.40
2023-01-11T08:58:31.229Z,2.20
2023-01-11T08:59:31.217Z,2.30
2023-01-11T09:00:31.229Z,2.10
2023-01-11T09:01:31.248Z,2.00
2023-01-11T09:02:31.269Z,2.20
2023-01-11T09:03:31.175Z,2.00
2023-01-11T09:04:31.239Z,2.20
2023-01-11T09:05:31.165Z,2.20
2023-01-11T09:06:31.144Z,2.30
2023-01-11T09:07:31.148Z,2.40
2023-01-11T09:08:31.117Z,2.40
2023-01-11T09:09:31.143Z,2.50
2023-01-11T09:10:31.104Z,2.10
2023-01-11T09:11:31.130Z,2.50
2023-01-11T09:12:31.077Z,2.10
2023-01-11T09:13:31.072Z,2.00
2023-01-11T09:14:31.091Z,1.80
2023-01-11T09:15:31.095Z,2.40
2023-01-11T09:16:31.038Z,2.40
2023-01-11T09:17:31.093Z,2.10
2023-01-11T09:18:31.033Z,2.30
2023-01-11T09:19:31.013Z,1.90
2023-01-11T09:20:30.998Z,2.40
2023-01-11T09:21:30.987Z,2.50
2023-01-11T09:22:31.027Z,2.40
2023-01-11T09:23:30.975Z,2.30
2023-01-11T09:24:31.008Z,1.90
2023-01-11T09:25:30.962Z,2.50
2023-01-11T09:26:30.928Z,2.10
2023-01-11T09:27:31.043Z,2.10
2023-01-11T09:28:30.920Z,1.80
2023-01-11T09:29:30.974Z,1.80
2023-01-11T09:30:31.381Z,1.70
2023-01-11T09:31:30.902Z,1.80
2023-01-11T09:32:30.885Z,1.70
2023-01-11T09:33:30.861Z,1.90
2023-01-11T09:34:31.035Z,1.90
2023-01-11T09:35:30.853Z,1.90
2023-01-11T09:36:30.828Z,1.90
2023-01-11T09:37:30.830Z,1.90
2023-01-11T09:38:30.812Z,1.80
2023-01-11T09:39:30.817Z,1.90
2023-01-11T09:40:30.794Z,1.80
2023-01-11T09:41:30.783Z,1.90
2023-01-11T09:42:30.764Z,1.70
2023-01-11T09:43:30.774Z,1.70
2023-01-11T09:44:30.856Z,1.50
2023-01-11T09:45:30.749Z,1.70
2023-01-11T09:46:30.757Z,1.60
2023-01-11T09:47:30.763Z,1.60
2023-01-11T09:48:30.706Z,1.80
2023-01-11T09:49:30.699Z,1.70
2023-01-11T09:50:30.688Z,1.70
2023-01-11T09:51:30.670Z,1.50
2023-01-11T09:52:30.699Z,1.70
2023-01-11T09:53:30.670Z,1.50
2023-01-11T09:54:30.640Z,2.00
2023-01-11T09:55:30.680Z,1.70
2023-01-11T09:56:30.618Z,1.50
2023-01-11T09:57:30.617Z,1.50
2023-01-11T09:58:30.592Z,1.50
2023-01-11T09:59:30.608Z,1.80
2023-01-11T10:00:30.677Z,1.60
2023-01-11T10:01:30.570Z,1.80
2023-01-11T10:02:30.573Z,1.30
2023-01-11T10:03:30.560Z,1.40
2023-01-11T10:04:30.597Z,1.60
2023-01-11T10:05:30.564Z,1.40
2023-01-11T10:06:30.517Z,1.40
2023-01-11T10:07:30.522Z,1.30
2023-01-11T10:14:06.167Z,1.10
2023-01-11T10:18:58.322Z,1.30
2023-01-11T10:19:33.415Z,1.30
2023-01-11T10:19:49.125Z,1.40
2023-01-11T10:20:49.078Z,1.30
2023-01-11T10:21:49.069Z,1.30
2023-01-11T10:22:49.028Z,1.40
2023-01-11T10:23:49.022Z,1.30
2023-01-11T10:24:49.008Z,1.40
2023-01-11T10:25:49.008Z,1.20
2023-01-11T10:26:49.079Z,1.30
2023-01-11T10:27:48.995Z,1.40
2023-01-11T10:28:48.962Z,1.20
2023-01-11T10:29:48.943Z,1.10
2023-01-11T10:30:49.016Z,1.30
2023-01-11T10:31:49.128Z,1.20
2023-01-11T10:32:48.964Z,1.20
2023-01-11T10:33:48.916Z,1.20
2023-01-11T10:34:48.912Z,1.10
2023-01-11T10:35:48.991Z,0.90
2023-01-11T10:36:48.888Z,1.20
2023-01-11T10:37:48.867Z,0.90
2023-01-11T10:38:48.872Z,1.10
2023-01-11T10:39:48.842Z,1.10
2023-01-11T10:40:48.900Z,1.20
2023-01-11T10:41:48.833Z,1.00
2023-01-11T10:42:48.834Z,1.00
2023-01-11T10:43:48.852Z,1.10
2023-01-11T10:44:48.824Z,1.00
2023-01-11T10:45:48.848Z,1.20
2023-01-11T10:46:48.788Z,1.00
2023-01-11T10:47:48.768Z,1.30
2023-01-11T10:48:48.763Z,0.90
2023-01-11T10:49:48.763Z,1.00
2023-01-11T10:50:48.799Z,1.10
2023-01-11T10:51:48.743Z,1.00
2023-01-11T10:52:48.720Z,1.10
2023-01-11T10:53:48.727Z,1.00
2023-01-11T10:54:50.164Z,1.20
2023-01-11T10:55:48.723Z,1.30
2023-01-11T10:57:03.259Z,1.40
2023-01-11T10:57:59.916Z,1.60
2023-01-11T10:58:48.669Z,1.50
2023-01-11T10:59:48.656Z,1.80
2023-01-11T11:00:48.753Z,1.40
2023-01-11T11:01:48.627Z,1.30
2023-01-11T11:02:48.653Z,1.10
2023-01-11T11:03:48.616Z,1.20
2023-01-11T11:04:48.595Z,1.00
2023-01-11T11:05:48.604Z,1.00
2023-01-11T11:06:48.606Z,1.20
2023-01-11T11:07:48.554Z,0.90
2023-01-11T11:08:48.580Z,0.90
2023-01-11T11:09:48.543Z,0.90
2023-01-11T11:10:48.568Z,1.00
2023-01-11T11:11:48.518Z,1.00
2023-01-11T11:12:48.519Z,1.10
2023-01-11T11:13:48.500Z,0.90
2023-01-11T11:14:48.494Z,1.00
2023-01-11T11:15:48.534Z,1.00
2023-01-11T11:16:48.535Z,1.20
2023-01-11T11:17:48.450Z,1.10
2023-01-11T11:18:48.460Z,1.10
2023-01-11T11:19:48.439Z,1.10
2023-01-11T11:20:48.463Z,1.20
2023-01-11T11:21:48.423Z,1.20
2023-01-11T11:22:48.413Z,1.00
2023-01-11T11:23:48.399Z,1.00
2023-01-11T11:24:48.397Z,0.90
2023-01-11T11:25:48.396Z,0.90
2023-01-11T11:26:48.416Z,1.20
2023-01-11T11:27:48.361Z,1.00
2023-01-11T11:28:48.358Z,1.30
2023-01-11T11:29:48.342Z,1.00
2023-01-11T11:30:48.342Z,1.30
2023-01-11T11:31:48.474Z,1.00
2023-01-11T11:32:48.310Z,1.30
2023-01-11T11:33:48.300Z,1.20
2023-01-11T11:34:48.284Z,1.30
2023-01-11T11:35:48.286Z,1.60
2023-01-11T11:36:48.277Z,1.30
2023-01-11T11:37:48.296Z,1.20
2023-01-11T11:38:48.246Z,1.30
2023-01-11T11:39:48.240Z,1.50
2023-01-11T11:40:48.247Z,1.40
2023-01-11T11:41:48.212Z,1.70
2023-01-11T11:42:48.221Z,1.60
2023-01-11T11:43:48.192Z,1.40
2023-01-11T11:44:48.182Z,1.40
2023-01-11T11:45:48.238Z,1.20
2023-01-11T11:46:48.216Z,1.70
2023-01-11T11:47:48.166Z,1.40
2023-01-11T11:48:48.148Z,1.50
2023-01-11T11:49:48.136Z,1.50
2023-01-11T11:50:48.134Z,1.60
2023-01-11T11:51:48.157Z,1.40
2023-01-11T11:52:48.115Z,1.70
2023-01-11T11:53:48.132Z,1.50
2023-01-11T11:54:48.081Z,1.80
2023-01-11T11:55:48.082Z,1.60
2023-01-11T11:56:48.089Z,1.60
2023-01-11T11:57:48.069Z,1.70
2023-01-11T11:58:48.046Z,1.40
2023-01-11T11:59:48.041Z,1.80
2023-01-11T12:00:48.039Z,1.40
2023-01-11T12:01:48.074Z,1.60
2023-01-11T12:02:48.020Z,1.60
2023-01-11T12:03:47.983Z,2.00
2023-01-11T12:04:48.051Z,1.40
2023-01-11T12:05:48.004Z,1.50
2023-01-11T12:06:49.232Z,1.70
2023-01-11T12:07:54.777Z,1.50
2023-01-11T12:08:47.983Z,1.80
2023-01-11T12:09:47.941Z,1.40
2023-01-11T12:10:47.983Z,1.60
2023-01-11T12:11:47.934Z,1.50
2023-01-11T12:12:47.919Z,1.80
2023-01-11T12:13:47.888Z,1.60
2023-01-11T12:14:47.894Z,1.80
2023-01-11T12:15:47.893Z,1.20
2023-01-11T12:16:47.941Z,1.70
2023-01-11T12:17:47.873Z,1.60
2023-01-11T12:18:47.860Z,1.50
2023-01-11T12:19:47.874Z,1.50
2023-01-11T12:20:47.855Z,1.40
2023-01-11T12:21:47.856Z,1.70
2023-01-11T12:22:47.800Z,1.50
2023-01-11T12:23:47.795Z,1.60
2023-01-11T12:24:47.783Z,1.40
2023-01-11T12:25:47.780Z,1.50
2023-01-11T12:26:47.858Z,1.20
2023-01-11T12:27:47.743Z,1.70
2023-01-11T12:28:47.754Z,1.40
2023-01-11T12:29:47.733Z,1.60
2023-01-11T12:30:47.817Z,1.60
2023-01-11T12:31:47.704Z,1.30
2023-01-11T12:32:47.700Z,1.40
2023-01-11T12:33:47.696Z,1.30
2023-01-11T12:34:47.696Z,1.70
2023-01-11T12:35:47.696Z,1.30
2023-01-11T12:36:47.668Z,1.40
2023-01-11T12:37:47.749Z,1.10
2023-01-11T12:38:47.675Z,1.30
2023-01-11T12:39:47.628Z,1.10
2023-01-11T12:40:47.630Z,1.30
2023-01-11T12:41:47.652Z,1.60
2023-01-11T12:42:47.604Z,1.40
2023-01-11T12:43:47.595Z,1.30
2023-01-11T12:44:47.793Z,1.00
2023-01-11T12:45:47.628Z,1.20
2023-01-11T12:46:47.579Z,1.10
2023-01-11T12:47:47.562Z,1.20
2023-01-11T12:48:47.551Z,1.10
2023-01-11T12:49:47.516Z,1.40
2023-01-11T12:50:47.528Z,1.00
2023-01-11T12:51:47.565Z,1.50
2023-01-11T12:52:47.525Z,1.30
2023-01-11T12:53:47.497Z,1.20
2023-01-11T12:54:47.478Z,1.40
2023-01-11T12:55:47.477Z,1.10
2023-01-11T12:56:47.474Z,1.20
2023-01-11T12:57:47.446Z,1.30
2023-01-11T12:58:47.449Z,1.30
2023-01-11T12:59:47.426Z,1.20
2023-01-11T13:00:47.429Z,1.30
2023-01-11T13:01:47.499Z,1.30
2023-01-11T13:02:47.527Z,1.50
2023-01-11T13:03:47.382Z,1.10
2023-01-11T13:04:47.374Z,1.00
2023-01-11T13:05:47.361Z,1.10
2023-01-11T13:06:47.388Z,1.30
2023-01-11T13:07:47.344Z,1.40
2023-01-11T13:08:47.343Z,1.30
2023-01-11T13:09:47.354Z,1.60
2023-01-11T13:10:47.315Z,1.40
2023-01-11T13:11:47.321Z,1.30
2023-01-11T13:12:47.325Z,1.20
2023-01-11T13:13:47.302Z,1.40
2023-01-11T13:14:47.305Z,1.30
2023-01-11T13:15:47.269Z,1.10
2023-01-11T13:16:47.389Z,1.70
2023-01-11T13:17:47.254Z,1.60
2023-01-11T13:18:47.257Z,1.80
2023-01-11T13:19:47.220Z,1.70
2023-01-11T13:20:59.965Z,1.50
2023-01-11T13:21:47.267Z,1.30
2023-01-11T13:22:47.220Z,1.30
2023-01-11T13:23:47.193Z,1.50
2023-01-11T13:24:47.185Z,1.40
2023-01-11T13:25:47.167Z,1.50
2023-01-11T13:26:49.154Z,1.50